Time;durP1;ratioP1;P1;durP2;ratioP2;P2;SDS_P1;SDS_P2;PMS_P1;PMS_P2;Temp;Humidity;BMP_temperature;BMP_pressure;BME280_temperature;BME280_humidity;BME280_pressure;Samples;Min_cycle;Max_cycle;Signal;HPM_P1;HPM_P2
2021/01/12 00:02:00;;;;;;;21.23;18.90;;;;;;;6.49;74.76;99906.31;5116072;28;20175;-74
2021/01/12 00:04:25;;;;;;;21.33;19.07;;;;;;;5.96;76.10;99884.88;5116545;28;20179;-74
2021/01/12 00:06:51;;;;;;;23.10;19.03;;;;;;;6.44;75.29;99889.84;5112455;28;20206;-74
2021/01/12 00:09:16;;;;;;;23.13;18.37;;;;;;;6.25;76.93;99876.66;5115897;28;20237;-75
2021/01/12 00:11:41;;;;;;;25.57;20.57;;;;;;;6.51;76.18;99878.75;5115514;28;20568;-74
2021/01/12 00:14:30;;;;;;;23.60;19.93;;;;;;;6.50;75.40;99877.00;5112707;28;20178;-74
2021/01/12 00:16:54;;;;;;;20.50;17.00;;;;;;;6.26;76.74;99870.66;5116419;28;20195;-75
2021/01/12 00:19:20;;;;;;;22.93;19.33;;;;;;;6.13;77.02;99863.56;5116753;28;20504;-75
2021/01/12 00:21:45;;;;;;;22.93;19.77;;;;;;;6.21;75.79;99862.84;5113246;27;20273;-75
2021/01/12 00:24:10;;;;;;;20.80;17.70;;;;;;;6.49;76.49;99855.41;5121080;28;20231;-75
2021/01/12 00:26:35;;;;;;;23.17;19.70;;;;;;;6.54;75.44;99858.06;5122074;28;20552;-75
2021/01/12 00:29:01;;;;;;;21.00;17.97;;;;;;;6.18;76.45;99851.56;5133144;27;20304;-77
2021/01/12 00:31:26;;;;;;;23.03;18.73;;;;;;;6.29;76.98;99864.66;5141399;27;20206;-75
2021/01/12 00:33:51;;;;;;;22.50;18.57;;;;;;;6.12;78.16;99848.91;5142894;27;20167;-75
2021/01/12 00:36:17;;;;;;;22.50;19.27;;;;;;;6.40;77.64;99855.31;5142530;27;20173;-74
2021/01/12 00:38:42;;;;;;;21.60;18.27;;;;;;;5.94;78.50;99860.72;5128967;27;20217;-74
2021/01/12 00:41:07;;;;;;;23.87;20.30;;;;;;;6.33;77.01;99837.94;5118429;28;20244;-75
2021/01/12 00:43:33;;;;;;;23.30;19.90;;;;;;;6.29;77.52;99833.59;5138270;27;20222;-74
2021/01/12 00:45:58;;;;;;;23.47;20.17;;;;;;;6.04;78.79;99831.53;5135703;27;20754;-74
2021/01/12 00:48:23;;;;;;;24.47;20.37;;;;;;;6.39;77.53;99831.13;5139805;27;20209;-75
2021/01/12 00:50:49;;;;;;;24.70;20.57;;;;;;;6.27;78.97;99823.22;5119579;27;20222;-74
2021/01/12 00:53:14;;;;;;;22.73;19.70;;;;;;;6.37;77.81;99825.06;5116753;27;20554;-75
2021/01/12 00:55:39;;;;;;;24.93;20.10;;;;;;;6.71;76.55;99812.50;5120938;27;20183;-75
2021/01/12 00:58:05;;;;;;;22.90;19.90;;;;;;;6.47;77.97;99815.69;5120671;27;20187;-75
2021/01/12 01:00:30;;;;;;;24.33;20.23;;;;;;;6.70;77.37;99804.72;5120526;28;20244;-75
2021/01/12 01:02:55;;;;;;;22.70;19.20;;;;;;;6.63;76.58;99795.13;5121146;28;20259;-76
2021/01/12 01:05:21;;;;;;;22.87;19.10;;;;;;;6.67;76.96;99796.91;5121459;28;20232;-75
2021/01/12 01:07:47;;;;;;;22.63;19.27;;;;;;;7.02;76.17;99799.84;5120737;27;20191;-75
2021/01/12 01:10:12;;;;;;;20.47;17.03;;;;;;;6.42;77.91;99803.56;5120647;27;20175;-75
2021/01/12 01:12:38;;;;;;;19.97;17.87;;;;;;;6.67;77.37;99802.97;5119599;28;20526;-75
2021/01/12 01:15:04;;;;;;;22.33;18.70;;;;;;;6.61;77.61;99799.44;5120315;28;20183;-76
2021/01/12 01:17:29;;;;;;;18.70;16.70;;;;;;;6.64;76.67;99777.00;5120810;28;20186;-75
2021/01/12 01:19:55;;;;;;;17.93;16.10;;;;;;;6.55;nan;99795.06;5120263;28;20417;-75
2021/01/12 01:22:23;;;;;;;17.67;15.77;;;;;;;6.51;78.35;99782.94;5119782;28;20171;-76
2021/01/12 01:24:48;;;;;;;17.53;15.73;;;;;;;7.04;77.27;99790.34;5119971;28;20593;-73
2021/01/12 01:27:14;;;;;;;16.50;14.67;;;;;;;6.85;77.82;99785.88;5120595;28;20456;-75
2021/01/12 01:29:39;;;;;;;18.20;16.30;;;;;;;7.04;76.37;99792.94;5120932;28;20267;-74
2021/01/12 01:32:04;;;;;;;16.53;14.83;;;;;;;6.68;77.33;99773.59;5119545;28;20203;-74
2021/01/12 01:34:30;;;;;;;17.70;15.77;;;;;;;6.62;77.16;99778.72;5118369;27;20172;-74
2021/01/12 01:36:59;;;;;;;17.77;15.87;;;;;;;7.20;76.06;99764.56;5119792;28;20182;-76
2021/01/12 01:39:25;;;;;;;16.33;14.43;;;;;;;6.99;76.56;99763.50;5119450;27;20184;-74
2021/01/12 01:41:50;;;;;;;17.30;15.50;;;;;;;6.91;76.76;99770.34;5119692;28;20462;-75
2021/01/12 01:44:15;;;;;;;17.63;15.77;;;;;;;7.15;76.74;99761.91;5120000;28;20179;-75
2021/01/12 01:46:42;;;;;;;16.67;14.97;;;;;;;7.00;76.31;99765.25;5119788;28;20191;-74
2021/01/12 01:49:07;;;;;;;15.47;13.57;;;;;;;6.70;77.39;99771.91;5119661;28;20536;-75
2021/01/12 01:51:33;;;;;;;16.67;14.87;;;;;;;6.79;77.55;99763.34;5118909;28;20487;-74
2021/01/12 01:53:58;;;;;;;17.43;15.57;;;;;;;7.23;76.04;99757.66;5119386;28;20189;-74
2021/01/12 01:56:26;;;;;;;17.10;14.87;;;;;;;6.95;76.73;99766.09;5119269;28;20175;-75
2021/01/12 01:58:51;;;;;;;19.10;15.10;;;;;;;7.04;76.24;99759.25;5119549;28;20224;-77
2021/01/12 02:01:16;;;;;;;17.00;14.83;;;;;;;6.87;76.84;99760.81;5136826;27;20416;-76
2021/01/12 02:03:45;;;;;;;14.73;13.23;;;;;;;6.93;77.19;99754.81;5140135;27;20535;-75
2021/01/12 02:06:15;;;;;;;15.40;13.90;;;;;;;7.01;76.75;99751.44;5139939;27;20193;-75
2021/01/12 02:08:48;;;;;;;15.00;13.40;;;;;;;7.60;75.24;99746.66;5139017;27;20415;-74
2021/01/12 02:11:14;;;;;;;15.50;13.93;;;;;;;6.99;76.25;99753.16;5139447;27;20421;-75
2021/01/12 02:13:41;;;;;;;13.67;12.30;;;;;;;6.97;76.50;99747.09;5138940;27;20730;-74
2021/01/12 02:16:06;;;;;;;13.27;11.97;;;;;;;7.07;76.77;99745.44;5138500;27;20420;-74
2021/01/12 02:18:36;;;;;;;13.33;12.03;;;;;;;6.82;76.91;99740.06;5139788;27;20476;-74
2021/01/12 02:21:03;;;;;;;14.00;12.50;;;;;;;7.17;75.99;99736.91;5139423;27;20520;-75
2021/01/12 02:23:47;;;;;;;14.17;12.77;;;;;;;7.15;76.16;99730.81;5139313;27;20590;-75
2021/01/12 02:26:12;;;;;;;13.33;11.93;;;;;;;7.34;75.52;99739.59;5138366;27;20508;-74
2021/01/12 02:28:37;;;;;;;13.50;12.10;;;;;;;7.33;74.81;99739.59;5139207;27;20756;-74
2021/01/12 02:31:03;;;;;;;14.70;13.20;;;;;;;7.34;75.91;99729.22;5139273;27;20446;-74
2021/01/12 02:33:29;;;;;;;16.13;14.43;;;;;;;7.62;74.56;99733.69;5139285;27;20254;-74
2021/01/12 02:35:54;;;;;;;15.53;13.90;;;;;;;7.20;75.97;99730.88;5138581;27;20158;-74
2021/01/12 02:38:21;;;;;;;15.13;13.53;;;;;;;7.02;77.14;99727.28;5139200;27;20181;-75
2021/01/12 02:40:46;;;;;;;15.90;13.80;;;;;;;7.01;77.32;99725.53;5138199;27;20391;-74
2021/01/12 02:43:13;;;;;;;16.50;14.70;;;;;;;6.84;78.51;99717.63;5139305;27;20675;-74
2021/01/12 02:45:38;;;;;;;15.63;13.10;;;;;;;6.90;77.93;99721.97;5138063;27;20607;-74
2021/01/12 02:48:04;;;;;;;14.87;13.37;;;;;;;7.00;77.31;99722.94;5139100;27;20416;-75
2021/01/12 02:50:29;;;;;;;15.83;14.23;;;;;;;7.14;76.82;99728.22;5139255;27;20174;-75
2021/01/12 02:52:54;;;;;;;17.20;15.33;;;;;;;7.29;76.42;99719.69;5139045;27;20568;-75
2021/01/12 02:55:20;;;;;;;16.57;14.87;;;;;;;7.44;76.60;99724.09;5123206;27;20198;-74
2021/01/12 02:57:45;;;;;;;16.97;15.17;;;;;;;7.05;76.99;99714.34;5118582;28;20183;-75
2021/01/12 03:00:13;;;;;;;14.90;13.30;;;;;;;7.16;77.04;99713.56;5118156;28;20179;-75
2021/01/12 03:02:39;;;;;;;15.30;13.70;;;;;;;7.53;75.69;99706.84;5118086;28;20167;-74
2021/01/12 03:05:06;;;;;;;15.40;13.80;;;;;;;7.03;77.16;99703.06;5118655;28;20856;-75
2021/01/12 03:07:31;;;;;;;13.77;12.30;;;;;;;6.76;78.83;99708.06;5117078;28;20198;-74
2021/01/12 03:09:56;;;;;;;14.80;13.20;;;;;;;7.13;77.08;99700.56;5117950;28;20454;-74
2021/01/12 03:12:22;;;;;;;13.43;12.03;;;;;;;7.12;77.49;99701.41;5118262;28;20267;-72
2021/01/12 03:14:47;;;;;;;13.90;12.50;;;;;;;6.88;78.32;99690.03;5118013;28;20171;-76
2021/01/12 03:17:13;;;;;;;15.13;13.60;;;;;;;7.26;77.02;99694.59;5117862;28;20172;-74
2021/01/12 03:19:42;;;;;;;13.70;12.30;;;;;;;7.52;76.64;99681.81;5118089;28;20533;-76
2021/01/12 03:22:07;;;;;;;18.60;12.93;;;;;;;7.33;77.38;99686.00;5117936;28;20414;-76
2021/01/12 03:24:33;;;;;;;14.87;13.13;;;;;;;7.20;76.90;99676.44;5117508;28;20514;-76
2021/01/12 03:26:58;;;;;;;15.30;13.80;;;;;;;7.00;78.24;99671.97;5118234;28;20175;-76
2021/01/12 03:29:23;;;;;;;16.37;14.40;;;;;;;7.07;77.76;99673.75;5117714;28;20539;-74
2021/01/12 03:31:49;;;;;;;15.73;13.17;;;;;;;7.22;77.79;99662.59;5117414;28;20204;-74
2021/01/12 03:34:14;;;;;;;16.00;14.30;;;;;;;6.96;77.96;99661.59;5117843;28;20178;-74
2021/01/12 03:36:40;;;;;;;17.67;14.67;;;;;;;7.28;77.17;99656.59;5117236;28;20179;-74
2021/01/12 03:39:06;;;;;;;15.10;13.40;;;;;;;7.40;76.14;99651.47;5117450;28;20176;-74
2021/01/12 03:41:34;;;;;;;15.37;13.77;;;;;;;7.59;76.23;99641.19;5117534;28;20171;-73
2021/01/12 03:44:00;;;;;;;14.70;13.00;;;;;;;7.67;75.41;99644.69;5117380;28;20688;-75
2021/01/12 03:46:25;;;;;;;16.33;14.73;;;;;;;7.41;76.40;99648.03;5117277;28;20440;-75
2021/01/12 03:48:51;;;;;;;14.83;13.23;;;;;;;7.19;77.33;99638.41;5117814;28;20413;-76
2021/01/12 03:51:18;;;;;;;13.67;12.30;;;;;;;7.40;77.21;99643.69;5118186;28;20219;-75
2021/01/12 03:53:43;;;;;;;14.53;13.10;;;;;;;7.70;75.95;99639.50;5118253;28;20259;-76
2021/01/12 03:56:09;;;;;;;15.00;13.50;;;;;;;7.45;76.40;99629.88;5117597;28;20487;-74
2021/01/12 03:58:36;;;;;;;13.20;11.80;;;;;;;7.25;77.23;99630.66;5118087;28;20254;-74
2021/01/12 04:01:02;;;;;;;13.63;12.23;;;;;;;7.24;78.17;99628.94;5118027;28;20258;-74
2021/01/12 04:03:27;;;;;;;15.10;13.60;;;;;;;7.39;76.35;99641.97;5118387;28;20856;-74
2021/01/12 04:05:53;;;;;;;12.93;11.63;;;;;;;7.70;75.84;99629.13;5118144;28;20496;-74
2021/01/12 04:08:18;;;;;;;14.00;11.57;;;;;;;7.66;76.58;99627.38;5118143;28;20179;-74
2021/01/12 04:10:43;;;;;;;14.03;12.50;;;;;;;7.64;75.97;99636.00;5118472;28;20167;-73
2021/01/12 04:13:09;;;;;;;12.70;11.40;;;;;;;7.49;76.86;99639.41;5118046;28;20628;-74
2021/01/12 04:15:34;;;;;;;13.63;12.23;;;;;;;7.56;76.76;99630.78;5117978;28;20218;-74
2021/01/12 04:17:59;;;;;;;13.67;12.27;;;;;;;7.08;78.01;99628.81;5118423;28;20171;-74
2021/01/12 04:20:25;;;;;;;13.10;11.77;;;;;;;7.15;77.79;99639.25;5118024;28;20172;-75
2021/01/12 04:22:51;;;;;;;14.47;12.97;;;;;;;7.48;77.04;99625.59;5117949;28;20175;-75
2021/01/12 04:25:16;;;;;;;14.03;12.53;;;;;;;7.96;74.99;99630.94;5117855;28;20227;-75
2021/01/12 04:27:41;;;;;;;13.03;11.77;;;;;;;8.08;74.84;99633.53;5118193;28;20794;-75
2021/01/12 04:30:07;;;;;;;13.00;11.70;;;;;;;7.92;74.98;99632.63;5118379;28;20521;-74
2021/01/12 04:32:32;;;;;;;13.63;12.23;;;;;;;7.84;76.00;99621.38;5117728;28;20207;-74
2021/01/12 04:34:58;;;;;;;12.57;11.27;;;;;;;7.79;76.08;99619.63;5119466;28;20171;-75
2021/01/12 04:37:23;;;;;;;12.90;11.50;;;;;;;7.73;76.14;99618.75;5118729;28;20547;-74
2021/01/12 04:39:48;;;;;;;13.03;11.63;;;;;;;8.03;74.76;99618.81;5117657;28;20220;-76
2021/01/12 04:42:14;;;;;;;13.17;11.77;;;;;;;8.30;73.82;99620.59;5117750;28;20530;-74
2021/01/12 04:44:39;;;;;;;11.23;10.13;;;;;;;7.40;76.64;99625.56;5118250;28;20171;-76
2021/01/12 04:47:08;;;;;;;12.00;10.90;;;;;;;8.13;74.61;99617.97;5117942;28;20521;-75
2021/01/12 04:49:34;;;;;;;9.40;8.50;;;;;;;7.78;75.90;99628.28;5117641;28;20174;-75
2021/01/12 04:51:59;;;;;;;9.67;8.70;;;;;;;8.25;73.81;99624.91;5118134;28;20449;-73
2021/01/12 04:54:34;;;;;;;10.10;9.10;;;;;;;8.45;73.20;99627.56;5117837;28;20517;-75
2021/01/12 04:57:00;;;;;;;10.00;9.03;;;;;;;8.57;72.50;99622.34;5117827;28;20220;-74
2021/01/12 04:59:33;;;;;;;10.20;9.20;;;;;;;8.23;74.12;99616.28;5117524;28;20409;-75
2021/01/12 05:01:58;;;;;;;10.03;9.03;;;;;;;8.64;72.76;99620.63;5117606;28;20511;-74
2021/01/12 05:04:24;;;;;;;9.70;7.53;;;;;;;8.66;71.65;99624.09;5117342;28;20419;-75
2021/01/12 05:06:49;;;;;;;7.20;6.50;;;;;;;8.72;70.89;99620.63;5117498;28;20172;-73
2021/01/12 05:09:21;;;;;;;7.27;5.37;;;;;;;8.36;72.06;99625.81;5120222;28;20206;-76
2021/01/12 05:11:47;;;;;;;4.50;4.00;;;;;;;8.57;70.78;99634.50;5120313;28;20191;-74
2021/01/12 05:14:14;;;;;;;5.73;4.17;;;;;;;8.60;70.23;99629.28;5121114;28;20444;-75
2021/01/12 05:16:53;;;;;;;3.73;3.30;;;;;;;8.61;69.77;99631.03;5121152;28;20555;-74
2021/01/12 05:19:21;;;;;;;3.60;3.00;;;;;;;9.12;67.87;99630.09;5120242;28;20417;-74
2021/01/12 05:21:47;;;;;;;4.70;2.90;;;;;;;9.00;68.20;99626.66;5121058;28;20441;-74
2021/01/12 05:24:19;;;;;;;3.33;3.03;;;;;;;8.11;71.50;99629.22;5120241;28;20453;-74
2021/01/12 05:26:45;;;;;;;4.77;2.97;;;;;;;8.60;70.32;99626.69;5120882;28;20410;-74
2021/01/12 05:29:11;;;;;;;5.63;3.33;;;;;;;8.34;70.78;99631.84;5120926;28;20484;-74
2021/01/12 05:31:37;;;;;;;4.87;3.60;;;;;;;8.23;70.57;99634.44;5120749;28;20463;-75
2021/01/12 05:34:04;;;;;;;4.10;3.53;;;;;;;8.09;71.52;99627.50;5120876;28;20160;-74
2021/01/12 05:36:31;;;;;;;3.60;3.30;;;;;;;8.29;70.50;99631.84;5121155;28;20410;-73
2021/01/12 05:39:00;;;;;;;4.90;3.80;;;;;;;8.39;70.50;99627.53;5120577;28;20413;-74
2021/01/12 05:41:27;;;;;;;5.40;3.57;;;;;;;8.56;69.64;99635.34;5120494;28;20441;-75
2021/01/12 05:43:52;;;;;;;4.27;3.10;;;;;;;7.98;71.48;99636.13;5120842;28;20456;-74
2021/01/12 05:46:17;;;;;;;4.83;3.80;;;;;;;8.36;70.49;99632.72;5119308;28;20433;-74
2021/01/12 05:48:44;;;;;;;6.47;3.80;;;;;;;8.33;70.57;99638.75;5120094;28;20589;-74
2021/01/12 05:51:13;;;;;;;5.83;3.07;;;;;;;8.45;70.02;99630.16;5120149;28;20198;-74
2021/01/12 05:53:44;;;;;;;4.57;3.50;;;;;;;8.33;70.54;99637.91;5119930;28;20417;-74
2021/01/12 05:56:11;;;;;;;4.80;3.40;;;;;;;8.08;71.19;99635.28;5120097;28;20406;-75
2021/01/12 05:58:41;;;;;;;4.53;3.70;;;;;;;8.08;71.47;99646.53;5119835;28;20417;-73
2021/01/12 06:01:07;;;;;;;3.70;3.40;;;;;;;8.33;70.43;99641.34;5119248;28;20755;-75
2021/01/12 06:03:33;;;;;;;3.67;3.00;;;;;;;8.04;71.80;99643.94;5102703;28;20506;-74
2021/01/12 06:05:58;;;;;;;3.93;3.60;;;;;;;7.96;71.72;99641.31;5119125;28;20402;-74
2021/01/12 06:08:24;;;;;;;5.10;3.40;;;;;;;7.13;73.86;99679.81;5119027;28;20806;-74
2021/01/12 06:10:49;;;;;;;6.17;2.67;;;;;;;6.63;73.22;99684.66;5119549;28;20316;-75
2021/01/12 06:13:16;;;;;;;3.37;2.37;;;;;;;6.30;73.55;99688.66;5119924;27;20282;-74
2021/01/12 06:15:42;;;;;;;2.10;1.90;;;;;;;6.33;72.84;99686.09;5119787;28;20428;-75
2021/01/12 06:18:11;;;;;;;2.70;2.50;;;;;;;6.31;71.70;99695.56;5120428;28;20399;-74
2021/01/12 06:21:12;;;;;;;4.10;2.30;;;;;;;5.91;72.27;99697.69;5119269;28;20409;-74
2021/01/12 06:23:44;;;;;;;4.13;2.20;;;;;;;5.55;73.39;99701.56;5116563;28;20472;-74
2021/01/12 06:26:11;;;;;;;3.00;2.20;;;;;;;5.30;73.94;99705.50;5119672;28;20428;-75
2021/01/12 06:28:36;;;;;;;3.77;2.07;;;;;;;5.16;74.07;99707.91;5118974;28;20417;-74
2021/01/12 06:31:04;;;;;;;3.83;2.70;;;;;;;5.44;73.70;99700.53;5119181;28;20799;-75
2021/01/12 06:33:32;;;;;;;2.70;2.20;;;;;;;5.31;73.93;99712.44;5119561;28;20198;-75
2021/01/12 06:35:59;;;;;;;4.33;2.10;;;;;;;5.34;72.90;99713.31;5119423;28;20417;-75
2021/01/12 06:38:25;;;;;;;8.33;2.17;;;;;;;5.33;73.39;99716.78;5118984;28;20838;-74
2021/01/12 06:40:53;;;;;;;4.47;2.17;;;;;;;5.38;73.74;99720.28;5119403;28;20477;-74
2021/01/12 06:43:24;;;;;;;6.57;4.10;;;;;;;5.72;71.91;99725.91;5119530;28;20425;-75
2021/01/12 06:45:49;;;;;;;2.83;2.20;;;;;;;5.34;73.43;99730.56;5119611;28;20831;-75
2021/01/12 06:48:15;;;;;;;4.53;2.40;;;;;;;5.29;72.86;99727.03;5118942;28;20409;-74
2021/01/12 06:50:45;;;;;;;3.20;2.03;;;;;;;5.08;71.82;99728.44;5118456;28;20783;-74
2021/01/12 06:53:12;;;;;;;3.73;2.37;;;;;;;4.79;73.18;99736.59;5119403;28;20206;-74
2021/01/12 06:55:38;;;;;;;2.30;2.10;;;;;;;4.67;72.93;99739.84;5118939;28;20425;-76
2021/01/12 06:58:07;;;;;;;3.70;2.27;;;;;;;5.23;71.83;99732.97;5119005;27;20410;-75
2021/01/12 07:00:35;;;;;;;6.40;4.43;;;;;;;5.26;71.21;99734.75;5119174;28;20163;-75
2021/01/12 07:03:01;;;;;;;2.70;1.93;;;;;;;5.55;70.63;99728.28;5118969;28;20421;-75
2021/01/12 07:05:39;;;;;;;3.53;2.30;;;;;;;5.99;69.58;99729.72;5119071;27;20419;-74
2021/01/12 07:08:09;;;;;;;2.80;2.00;;;;;;;6.07;67.67;99732.41;5119300;28;20829;-75
2021/01/12 07:10:45;;;;;;;3.00;2.33;;;;;;;6.09;68.31;99735.00;5118712;28;20421;-73
2021/01/12 07:13:11;;;;;;;4.03;2.40;;;;;;;6.18;69.02;99732.53;5118536;28;20770;-73
2021/01/12 07:15:44;;;;;;;4.97;2.70;;;;;;;6.43;67.28;99731.06;5117891;28;20428;-73
2021/01/12 07:18:10;;;;;;;2.53;2.20;;;;;;;6.06;67.87;99730.66;5118800;28;20276;-74
2021/01/12 07:20:36;;;;;;;5.10;4.50;;;;;;;6.24;68.95;99730.88;5117866;28;20492;-74
2021/01/12 07:23:02;;;;;;;4.53;2.70;;;;;;;6.21;68.03;99729.94;5118976;28;20218;-75
2021/01/12 07:25:40;;;;;;;5.23;2.50;;;;;;;6.53;69.84;99739.78;5118520;28;20457;-74
2021/01/12 07:28:08;;;;;;;5.17;2.63;;;;;;;6.41;67.67;99737.94;5119259;28;20465;-73
2021/01/12 07:30:37;;;;;;;2.70;2.50;;;;;;;6.77;66.69;99738.31;5118794;27;20505;-74
2021/01/12 07:33:04;;;;;;;3.30;3.00;;;;;;;6.71;68.06;99742.56;5117811;28;20933;-74
2021/01/12 07:35:31;;;;;;;2.50;2.30;;;;;;;6.58;66.82;99745.88;5119376;28;20489;-74
2021/01/12 07:37:57;;;;;;;6.33;3.33;;;;;;;6.68;67.87;99752.88;5118148;28;20422;-75
2021/01/12 07:40:22;;;;;;;4.20;3.43;;;;;;;6.48;65.87;99750.13;5117969;28;20821;-74
2021/01/12 07:42:52;;;;;;;4.87;3.80;;;;;;;6.83;66.02;99748.69;5118974;28;20156;-74
2021/01/12 07:45:19;;;;;;;8.87;6.67;;;;;;;6.85;65.81;99752.19;5118205;28;20171;-74
2021/01/12 07:47:48;;;;;;;5.03;3.60;;;;;;;6.43;66.79;99754.38;5118198;28;20413;-75
2021/01/12 07:50:13;;;;;;;5.07;3.83;;;;;;;6.43;67.79;99749.19;5118587;28;20423;-74
2021/01/12 07:52:38;;;;;;;5.00;3.80;;;;;;;6.79;66.89;99760.75;5118146;28;20493;-74
2021/01/12 07:55:04;;;;;;;5.50;3.70;;;;;;;6.67;67.05;99758.03;5118778;28;20172;-74
2021/01/12 07:57:30;;;;;;;6.70;4.20;;;;;;;6.61;67.14;99765.78;5118251;28;20175;-75
2021/01/12 07:59:56;;;;;;;7.03;3.90;;;;;;;6.93;66.47;99757.41;5118008;28;20549;-75
2021/01/12 08:02:24;;;;;;;10.80;5.30;;;;;;;7.02;66.16;99758.38;5118656;28;20254;-74
2021/01/12 08:04:49;;;;;;;6.20;3.70;;;;;;;7.01;65.77;99754.03;5117929;28;20175;-74
2021/01/12 08:07:24;;;;;;;5.40;3.37;;;;;;;6.73;68.26;99764.16;5116560;28;20668;-74
2021/01/12 08:09:56;;;;;;;5.00;3.97;;;;;;;6.44;67.17;99766.47;5117079;28;20178;-74
2021/01/12 08:12:22;;;;;;;6.23;3.90;;;;;;;6.85;66.78;99768.59;5117827;28;20471;-75
2021/01/12 08:14:49;;;;;;;14.03;4.50;;;;;;;6.75;68.10;99766.75;5118351;28;20402;-75
2021/01/12 08:17:19;;;;;;;5.17;3.90;;;;;;;6.87;68.55;99774.66;5118068;28;20504;-75
2021/01/12 08:19:45;;;;;;;5.57;3.90;;;;;;;6.94;68.14;99775.59;5117932;28;20413;-75
2021/01/12 08:22:10;;;;;;;5.20;3.43;;;;;;;6.84;67.79;99782.38;5118296;28;20416;-75
2021/01/12 08:24:35;;;;;;;5.03;3.77;;;;;;;6.71;66.83;99788.28;5116830;28;20490;-75
2021/01/12 08:27:05;;;;;;;6.03;4.00;;;;;;;7.06;67.54;99783.47;5118456;28;20183;-75
2021/01/12 08:29:32;;;;;;;7.70;4.20;;;;;;;6.96;66.97;99791.16;5118126;28;20205;-76
2021/01/12 08:32:01;;;;;;;6.10;4.60;;;;;;;7.26;67.06;99793.13;5117884;28;20460;-74
2021/01/12 08:34:27;;;;;;;5.97;4.20;;;;;;;6.75;67.37;99797.84;5117356;28;20485;-74
2021/01/12 08:36:54;;;;;;;4.80;3.53;;;;;;;6.83;66.76;99798.81;5117795;28;20426;-75
2021/01/12 08:39:22;;;;;;;7.23;3.40;;;;;;;6.85;66.39;99801.41;5116912;28;20210;-74
2021/01/12 08:41:48;;;;;;;6.20;3.67;;;;;;;6.96;66.47;99798.91;5117293;28;20424;-74
2021/01/12 08:44:14;;;;;;;6.13;4.10;;;;;;;7.24;65.92;99808.66;5120702;28;20417;-75
2021/01/12 08:46:40;;;;;;;5.27;3.10;;;;;;;6.93;66.96;99809.22;5120978;28;20410;-74
2021/01/12 08:49:05;;;;;;;5.17;3.10;;;;;;;7.07;65.98;99816.28;5121716;28;20675;-75
2021/01/12 08:51:32;;;;;;;5.27;3.20;;;;;;;6.98;65.32;99816.22;5122027;28;20641;-75
2021/01/12 08:53:58;;;;;;;3.83;2.83;;;;;;;7.17;65.85;99818.94;5121792;28;20258;-75
2021/01/12 08:56:23;;;;;;;5.57;2.90;;;;;;;7.44;64.07;99814.84;5120752;28;20417;-74
2021/01/12 08:58:48;;;;;;;9.97;3.07;;;;;;;7.23;65.04;99824.19;5121211;28;20414;-75
2021/01/12 09:01:14;;;;;;;6.07;2.50;;;;;;;6.76;64.94;99824.63;5120973;28;20187;-73
2021/01/12 09:03:42;;;;;;;10.23;5.10;;;;;;;6.61;66.71;99839.13;5121354;28;20176;-74
2021/01/12 09:06:21;;;;;;;9.50;3.40;;;;;;;7.09;65.43;99837.06;5121780;28;20184;-74
2021/01/12 09:08:47;;;;;;;4.17;3.23;;;;;;;7.04;65.28;99839.59;5121639;28;20421;-75
2021/01/12 09:11:13;;;;;;;4.93;3.07;;;;;;;7.56;63.23;99846.06;5121151;28;20562;-75
2021/01/12 09:13:39;;;;;;;6.70;3.83;;;;;;;7.38;63.86;99851.97;5120474;28;20495;-75
2021/01/12 09:16:04;;;;;;;9.10;3.80;;;;;;;7.55;62.63;99844.31;5120529;28;20175;-74
2021/01/12 09:18:35;;;;;;;9.90;3.90;;;;;;;7.65;62.03;99853.06;5120874;28;20260;-75
2021/01/12 09:21:06;;;;;;;4.13;3.10;;;;;;;7.66;62.14;99853.06;5121030;28;20171;-74
2021/01/12 09:23:31;;;;;;;6.30;3.23;;;;;;;7.31;63.08;99856.25;5120796;28;20472;-75
2021/01/12 09:26:01;;;;;;;6.43;3.07;;;;;;;7.66;62.05;99850.47;5121043;28;20421;-75
2021/01/12 09:28:36;;;;;;;8.50;3.33;;;;;;;7.28;62.39;99861.41;5121038;28;20558;-75
2021/01/12 09:31:06;;;;;;;6.20;3.33;;;;;;;7.24;62.53;99862.25;5120753;28;20499;-74
2021/01/12 09:33:31;;;;;;;6.33;3.27;;;;;;;7.56;61.19;99859.91;5120949;28;20465;-74
2021/01/12 09:36:03;;;;;;;5.70;3.40;;;;;;;7.08;62.84;99858.63;5120672;28;20492;-76
2021/01/12 09:38:46;;;;;;;4.77;3.90;;;;;;;11.11;72.73;99853.19;5120499;28;20179;-56
2021/01/12 09:41:12;;;;;;;6.20;3.40;;;;;;;12.08;60.32;99861.94;5116529;28;20435;-60
2021/01/12 09:43:38;;;;;;;7.63;3.43;;;;;;;9.43;56.46;99870.19;5109779;28;20455;-73
2021/01/12 09:46:04;;;;;;;8.70;3.80;;;;;;;9.69;54.92;99859.78;5120085;28;20671;-73
2021/01/12 09:48:29;;;;;;;7.30;3.40;;;;;;;10.51;52.36;99866.53;5120549;28;20182;-70
2021/01/12 09:50:55;;;;;;;5.90;3.20;;;;;;;11.23;49.38;99862.66;5119981;28;20499;-71
2021/01/12 09:53:20;;;;;;;9.37;3.50;;;;;;;11.19;48.81;99868.78;5119705;28;20259;-69
2021/01/12 09:55:46;;;;;;;4.63;2.90;;;;;;;11.94;48.24;99869.88;5107309;28;20267;-69
2021/01/12 09:58:11;;;;;;;5.30;3.17;;;;;;;11.50;48.74;99860.72;5106560;28;20455;-70
2021/01/12 10:00:37;;;;;;;7.17;3.10;;;;;;;12.16;46.77;99867.09;5105147;28;20183;-73
2021/01/12 10:03:06;;;;;;;5.60;3.30;;;;;;;12.29;44.46;99859.09;5120376;28;20164;-72
2021/01/12 10:05:32;;;;;;;5.47;3.17;;;;;;;11.48;46.46;99868.56;5119535;28;20191;-69
2021/01/12 10:07:57;;;;;;;5.93;3.37;;;;;;;12.18;44.74;99866.19;5119771;28;20506;-69
2021/01/12 10:10:22;;;;;;;4.80;3.17;;;;;;;12.75;43.58;99869.88;5119467;28;20650;-69
2021/01/12 10:12:48;;;;;;;7.53;3.83;;;;;;;12.76;43.99;99867.22;5119418;28;20235;-69
2021/01/12 10:15:13;;;;;;;6.63;3.70;;;;;;;12.41;44.24;99868.53;5101762;28;20178;-70
2021/01/12 10:17:38;;;;;;;6.53;3.10;;;;;;;11.93;43.93;99862.94;5119858;28;20628;-71
2021/01/12 10:20:05;;;;;;;8.77;3.20;;;;;;;12.56;42.73;99861.41;5119075;28;20171;-69
2021/01/12 10:22:30;;;;;;;4.20;2.70;;;;;;;12.54;42.47;99863.16;5112491;28;20441;-68
2021/01/12 10:24:58;;;;;;;4.63;2.93;;;;;;;12.64;42.73;99870.84;5106609;28;20447;-70
2021/01/12 10:27:24;;;;;;;4.00;2.40;;;;;;;12.11;42.92;99870.63;5107659;28;20190;-70
2021/01/12 10:29:50;;;;;;;9.40;3.70;;;;;;;12.03;43.14;99866.34;5108712;28;20662;-69
2021/01/12 10:32:15;;;;;;;3.60;2.50;;;;;;;12.18;43.26;99870.53;5108615;28;20195;-69
2021/01/12 10:34:40;;;;;;;5.67;2.87;;;;;;;12.27;43.08;99868.69;5103548;28;20275;-69
2021/01/12 10:37:06;;;;;;;3.90;2.90;;;;;;;12.63;42.51;99863.03;5098973;28;20172;-69
2021/01/12 10:39:32;;;;;;;6.33;3.20;;;;;;;12.32;41.98;99873.88;5098565;28;20184;-69
2021/01/12 10:41:57;;;;;;;6.10;3.13;;;;;;;12.60;42.61;99869.16;5098530;28;20260;-69
2021/01/12 10:44:23;;;;;;;5.13;3.27;;;;;;;12.17;42.99;99868.81;5098852;28;20638;-68
2021/01/12 10:46:55;;;;;;;6.30;2.83;;;;;;;11.73;44.99;99874.44;5096061;27;20172;-69
2021/01/12 10:49:20;;;;;;;6.20;3.07;;;;;;;12.61;42.92;99863.06;5115619;27;20171;-69
2021/01/12 10:51:46;;;;;;;9.93;3.40;;;;;;;12.52;41.75;99867.56;5117097;27;20437;-70
2021/01/12 10:54:11;;;;;;;5.30;3.60;;;;;;;12.52;41.47;99859.72;5117042;28;20243;-69
2021/01/12 10:56:37;;;;;;;4.43;3.33;;;;;;;12.71;41.64;99860.34;5104589;28;20231;-71
2021/01/12 10:59:02;;;;;;;4.47;3.00;;;;;;;12.41;43.10;99863.31;5114958;27;20205;-70
2021/01/12 11:01:28;;;;;;;8.80;3.33;;;;;;;13.16;40.91;99867.53;5115376;27;20649;-69
2021/01/12 11:03:53;;;;;;;5.77;2.83;;;;;;;12.04;44.12;99874.19;5115617;28;20171;-70
2021/01/12 11:06:19;;;;;;;5.50;3.00;;;;;;;12.60;42.01;99863.09;5116554;28;20176;-70
2021/01/12 11:08:46;;;;;;;7.80;3.63;;;;;;;12.29;43.36;99863.44;5116383;28;20190;-70
2021/01/12 11:11:11;;;;;;;4.77;3.23;;;;;;;11.63;45.20;99872.78;5116365;28;20484;-70
2021/01/12 11:13:38;;;;;;;6.97;3.30;;;;;;;12.38;42.34;99868.56;5116446;28;20457;-71
2021/01/12 11:16:03;;;;;;;6.20;3.50;;;;;;;12.58;42.75;99870.06;5116497;28;20175;-73
2021/01/12 11:18:28;;;;;;;5.17;3.47;;;;;;;12.36;41.30;99869.47;5116288;28;20417;-71
2021/01/12 11:20:54;;;;;;;9.00;3.50;;;;;;;12.59;41.39;99866.56;5116730;28;20166;-74
2021/01/12 11:23:19;;;;;;;5.67;3.63;;;;;;;11.80;41.94;99873.50;5101305;28;20238;-70
2021/01/12 11:25:45;;;;;;;7.43;3.30;;;;;;;11.95;42.22;99863.81;5096044;28;20570;-76
2021/01/12 11:28:10;;;;;;;6.10;3.40;;;;;;;12.36;42.08;99859.03;5101890;28;20221;-72
2021/01/12 11:30:36;;;;;;;7.27;3.73;;;;;;;12.67;39.88;99858.66;5107242;28;20472;-72
2021/01/12 11:33:01;;;;;;;7.17;3.63;;;;;;;12.48;39.78;99861.47;5108046;27;20208;-75